Time;durP1;ratioP1;P1;durP2;ratioP2;P2;SDS_P1;SDS_P2;PMS_P1;PMS_P2;Temp;Humidity;BMP_temperature;BMP_pressure;BME280_temperature;BME280_humidity;BME280_pressure;Samples;Min_cycle;Max_cycle;Signal;HPM_P1;HPM_P2
2024/01/02 00:00:07;;;;;;;18.38;5.13;;;;;;;;;;4967898;29;20035;-53
2024/01/02 00:02:37;;;;;;;22.27;4.20;;;;;;;;;;4957179;29;20035;-53
2024/01/02 00:05:03;;;;;;;20.15;4.47;;;;;;;;;;4968629;29;20066;-54
2024/01/02 00:07:28;;;;;;;22.27;4.00;;;;;;;;;;4969271;29;20031;-57
2024/01/02 00:09:53;;;;;;;28.73;4.23;;;;;;;;;;4965742;29;20039;-55
2024/01/02 00:12:19;;;;;;;23.13;4.20;;;;;;;;;;4964216;29;20031;-55
2024/01/02 00:14:44;;;;;;;22.20;4.20;;;;;;;;;;4957018;29;20087;-55
2024/01/02 00:17:09;;;;;;;29.50;4.17;;;;;;;;;;4956583;29;20032;-51
2024/01/02 00:19:35;;;;;;;31.95;6.60;;;;;;;;;;4964385;29;20060;-53
2024/01/02 00:22:00;;;;;;;20.23;4.20;;;;;;;;;;4958910;29;20043;-55
2024/01/02 00:24:26;;;;;;;38.47;5.37;;;;;;;;;;4957168;29;20044;-54
2024/01/02 00:26:51;;;;;;;17.97;3.10;;;;;;;;;;4969199;29;20028;-57
2024/01/02 00:29:16;;;;;;;32.57;3.80;;;;;;;;;;4957773;29;20039;-56
2024/01/02 00:31:44;;;;;;;16.38;3.47;;;;;;;;;;4958519;29;20083;-56
2024/01/02 00:34:11;;;;;;;34.17;4.57;;;;;;;;;;4940231;29;20092;-53
2024/01/02 00:36:36;;;;;;;15.23;2.53;;;;;;;;;;4939912;29;20023;-53
2024/01/02 00:39:02;;;;;;;22.67;3.50;;;;;;;;;;4943930;29;20099;-55
2024/01/02 00:41:27;;;;;;;19.17;3.53;;;;;;;;;;4958851;29;20042;-55
2024/01/02 00:43:52;;;;;;;19.20;3.40;;;;;;;;;;4949275;29;20036;-51
2024/01/02 00:46:18;;;;;;;19.90;2.73;;;;;;;;;;4968690;29;20098;-53
2024/01/02 00:48:43;;;;;;;16.23;3.10;;;;;;;;;;4964166;28;20040;-52
2024/01/02 00:51:11;;;;;;;10.23;2.60;;;;;;;;;;4955003;29;20039;-54
2024/01/02 00:53:36;;;;;;;22.73;4.05;;;;;;;;;;4961884;29;20042;-56
2024/01/02 00:56:01;;;;;;;22.07;5.00;;;;;;;;;;4945049;29;20027;-55
2024/01/02 00:58:27;;;;;;;21.27;2.40;;;;;;;;;;4943658;29;20051;-53
2024/01/02 01:00:52;;;;;;;16.60;3.57;;;;;;;;;;4967585;29;20027;-52
2024/01/02 01:03:18;;;;;;;15.90;2.40;;;;;;;;;;4943696;29;20036;-55
2024/01/02 01:05:44;;;;;;;15.52;2.40;;;;;;;;;;4960286;29;20027;-53
2024/01/02 01:08:09;;;;;;;9.87;2.83;;;;;;;;;;4953448;29;20091;-53
2024/01/02 01:10:34;;;;;;;35.85;3.97;;;;;;;;;;4948371;29;20138;-53
2024/01/02 01:13:00;;;;;;;9.93;2.80;;;;;;;;;;4943634;29;20055;-56
2024/01/02 01:15:25;;;;;;;20.33;2.60;;;;;;;;;;4956167;29;20051;-56
2024/01/02 01:17:50;;;;;;;8.90;2.47;;;;;;;;;;4945302;29;20039;-53
2024/01/02 01:20:16;;;;;;;27.40;3.63;;;;;;;;;;4943884;29;20032;-53
2024/01/02 01:22:41;;;;;;;16.87;2.40;;;;;;;;;;4943580;29;20479;-53
2024/01/02 01:25:06;;;;;;;15.50;2.40;;;;;;;;;;4959560;29;20051;-57
2024/01/02 01:27:32;;;;;;;0.10;0.10;;;;;;;;;;4959874;29;20104;-55
2024/01/02 01:29:57;;;;;;;0.17;0.17;;;;;;;;;;4964549;29;20039;-56
2024/01/02 01:32:22;;;;;;;0.17;0.17;;;;;;;;;;4943269;29;20066;-57
2024/01/02 01:34:47;;;;;;;0.33;0.33;;;;;;;;;;4946644;29;20019;-56
2024/01/02 01:37:13;;;;;;;0.10;0.10;;;;;;;;;;4940518;29;20051;-55
2024/01/02 01:39:39;;;;;;;0.20;0.20;;;;;;;;;;4944266;29;20028;-53
2024/01/02 01:42:04;;;;;;;;;;;;;;;;;;4962772;29;20046;-55
2024/01/02 01:44:30;;;;;;;0.10;0.10;;;;;;;;;;4960032;29;20429;-56
2024/01/02 01:46:56;;;;;;;0.10;0.10;;;;;;;;;;4959488;29;20095;-57
2024/01/02 01:49:22;;;;;;;0.20;0.20;;;;;;;;;;4962321;29;20469;-56
2024/01/02 01:51:49;;;;;;;1.05;1.05;;;;;;;;;;4959282;29;20039;-54
2024/01/02 01:54:15;;;;;;;0.15;0.15;;;;;;;;;;4942628;29;20036;-53
2024/01/02 01:56:42;;;;;;;0.10;0.10;;;;;;;;;;4959552;29;20060;-54
2024/01/02 01:59:08;;;;;;;0.20;0.20;;;;;;;;;;4942862;29;20032;-54
2024/01/02 02:01:33;;;;;;;0.63;0.63;;;;;;;;;;4943989;29;20039;-54
2024/01/02 02:03:59;;;;;;;0.20;0.20;;;;;;;;;;4952428;29;20610;-54
2024/01/02 02:06:25;;;;;;;0.20;0.20;;;;;;;;;;4942817;29;20028;-55
2024/01/02 02:08:50;;;;;;;0.10;0.10;;;;;;;;;;4943947;29;20293;-57
2024/01/02 02:11:16;;;;;;;0.10;0.10;;;;;;;;;;4960921;29;20499;-57
2024/01/02 02:13:41;;;;;;;0.73;0.73;;;;;;;;;;4942658;29;20039;-53
2024/01/02 02:16:07;;;;;;;0.20;0.20;;;;;;;;;;4942777;29;20039;-56
2024/01/02 02:18:32;;;;;;;0.27;0.27;;;;;;;;;;4947407;29;20024;-55
2024/01/02 02:20:58;;;;;;;0.83;0.73;;;;;;;;;;4951249;29;20300;-57
2024/01/02 02:23:23;;;;;;;0.10;0.10;;;;;;;;;;4960210;29;20096;-57
2024/01/02 02:25:49;;;;;;;0.10;0.10;;;;;;;;;;4942937;29;20035;-55
2024/01/02 02:28:14;;;;;;;0.10;0.10;;;;;;;;;;4961616;29;20091;-55
2024/01/02 02:30:39;;;;;;;0.13;0.13;;;;;;;;;;4965289;29;20023;-53
2024/01/02 02:33:04;;;;;;;0.10;0.10;;;;;;;;;;4969422;29;20083;-56
2024/01/02 02:35:30;;;;;;;0.10;0.10;;;;;;;;;;4942221;29;20036;-57
2024/01/02 02:37:56;;;;;;;1.45;1.35;;;;;;;;;;4943820;29;20030;-55
2024/01/02 02:40:21;;;;;;;0.10;0.10;;;;;;;;;;4945430;29;20031;-57
2024/01/02 02:42:46;;;;;;;0.10;0.10;;;;;;;;;;4963853;29;20071;-54
2024/01/02 02:45:12;;;;;;;0.10;0.10;;;;;;;;;;4958721;29;20064;-57
2024/01/02 02:47:37;;;;;;;5.77;1.17;;;;;;;;;;4958782;29;20119;-53
2024/01/02 02:50:05;;;;;;;1.98;1.02;;;;;;;;;;4956070;29;20031;-56
2024/01/02 02:52:30;;;;;;;4.72;1.10;;;;;;;;;;4963349;29;20048;-57
2024/01/02 02:54:57;;;;;;;7.65;1.38;;;;;;;;;;4958564;29;20028;-57
2024/01/02 02:57:22;;;;;;;5.03;1.00;;;;;;;;;;4958164;29;20031;-57
2024/01/02 02:59:47;;;;;;;6.67;1.20;;;;;;;;;;4945584;29;20036;-55
2024/01/02 03:02:12;;;;;;;1.67;0.80;;;;;;;;;;4963445;29;20042;-54
2024/01/02 03:04:38;;;;;;;8.97;1.33;;;;;;;;;;4963779;29;20032;-56
2024/01/02 03:07:03;;;;;;;3.27;1.33;;;;;;;;;;4958034;29;20040;-57
2024/01/02 03:09:29;;;;;;;5.00;0.97;;;;;;;;;;4963308;29;20305;-56
2024/01/02 03:11:54;;;;;;;2.70;0.97;;;;;;;;;;4968678;29;20038;-56
2024/01/02 03:14:20;;;;;;;4.57;1.00;;;;;;;;;;4960783;29;20038;-57
2024/01/02 03:16:45;;;;;;;3.40;1.00;;;;;;;;;;4957938;29;20060;-56
2024/01/02 03:19:10;;;;;;;2.33;0.90;;;;;;;;;;4959748;29;20043;-55
2024/01/02 03:21:36;;;;;;;2.37;1.10;;;;;;;;;;4957817;29;20068;-53
2024/01/02 03:24:02;;;;;;;1.23;0.70;;;;;;;;;;4963639;29;20027;-53
2024/01/02 03:26:28;;;;;;;3.90;0.90;;;;;;;;;;4964008;29;20037;-55
2024/01/02 03:28:53;;;;;;;2.53;0.90;;;;;;;;;;4962819;29;20304;-56
2024/01/02 03:31:18;;;;;;;2.20;0.80;;;;;;;;;;4963560;29;20282;-51
2024/01/02 03:33:44;;;;;;;2.10;1.00;;;;;;;;;;4957607;29;20038;-54
2024/01/02 03:36:15;;;;;;;1.23;0.90;;;;;;;;;;4960804;29;20293;-54
2024/01/02 03:38:41;;;;;;;5.00;1.13;;;;;;;;;;4948498;29;20057;-54
2024/01/02 03:41:07;;;;;;;2.45;1.00;;;;;;;;;;4958430;29;20266;-55
2024/01/02 03:43:33;;;;;;;3.85;1.10;;;;;;;;;;4957673;29;20032;-57
2024/01/02 03:45:58;;;;;;;1.10;1.00;;;;;;;;;;4957330;29;20099;-56
2024/01/02 03:48:23;;;;;;;5.03;1.20;;;;;;;;;;4957687;29;20360;-57
2024/01/02 03:50:48;;;;;;;0.87;0.83;;;;;;;;;;4964915;29;20032;-50
2024/01/02 03:53:14;;;;;;;1.75;1.33;;;;;;;;;;4957178;29;20036;-51
2024/01/02 03:55:39;;;;;;;1.50;1.10;;;;;;;;;;4959063;29;20058;-55
2024/01/02 03:58:05;;;;;;;12.93;1.37;;;;;;;;;;4957598;29;20273;-54
2024/01/02 04:00:30;;;;;;;1.53;1.10;;;;;;;;;;4958648;29;20104;-53
2024/01/02 04:02:55;;;;;;;1.30;0.87;;;;;;;;;;4964852;29;20036;-55
2024/01/02 04:05:21;;;;;;;1.50;0.98;;;;;;;;;;4957154;29;20047;-53
2024/01/02 04:07:47;;;;;;;2.22;1.05;;;;;;;;;;4957267;29;20062;-54
2024/01/02 04:10:12;;;;;;;2.17;1.00;;;;;;;;;;4968093;29;20046;-55
2024/01/02 04:12:37;;;;;;;1.33;1.10;;;;;;;;;;4960843;29;20031;-53
2024/01/02 04:15:03;;;;;;;2.53;1.27;;;;;;;;;;4964987;29;20042;-53
2024/01/02 04:17:28;;;;;;;1.80;1.20;;;;;;;;;;4957030;29;20028;-51
2024/01/02 04:19:54;;;;;;;3.67;1.30;;;;;;;;;;4958643;29;20035;-56
2024/01/02 04:22:19;;;;;;;3.37;1.57;;;;;;;;;;4957903;29;20059;-54
2024/01/02 04:24:45;;;;;;;1.30;1.15;;;;;;;;;;4956514;29;20046;-56
2024/01/02 04:27:11;;;;;;;1.88;1.30;;;;;;;;;;4956769;29;20054;-55
2024/01/02 04:29:36;;;;;;;1.95;1.40;;;;;;;;;;4962063;29;20038;-54
2024/01/02 04:32:03;;;;;;;3.50;1.52;;;;;;;;;;4965021;29;20036;-57
2024/01/02 04:34:28;;;;;;;1.67;1.30;;;;;;;;;;4956921;29;20099;-56
2024/01/02 04:36:53;;;;;;;1.83;1.40;;;;;;;;;;4956742;29;20020;-57
2024/01/02 04:39:19;;;;;;;1.75;1.58;;;;;;;;;;4960001;29;20092;-60
2024/01/02 04:41:45;;;;;;;2.65;1.65;;;;;;;;;;4960282;29;20066;-57
2024/01/02 04:44:10;;;;;;;2.57;1.60;;;;;;;;;;4957699;29;20036;-55
2024/01/02 04:46:36;;;;;;;1.48;1.23;;;;;;;;;;4958569;29;20047;-56
2024/01/02 04:49:01;;;;;;;2.33;1.57;;;;;;;;;;4956744;29;20064;-55
2024/01/02 04:51:28;;;;;;;2.40;1.40;;;;;;;;;;4955942;29;20066;-56
2024/01/02 04:53:53;;;;;;;1.20;1.03;;;;;;;;;;4963246;29;20032;-54
2024/01/02 04:56:18;;;;;;;3.10;1.40;;;;;;;;;;4958096;29;20281;-57
2024/01/02 04:58:45;;;;;;;1.50;1.05;;;;;;;;;;4956659;29;20023;-55
2024/01/02 05:01:10;;;;;;;1.00;0.90;;;;;;;;;;4961430;29;20036;-55
2024/01/02 05:03:36;;;;;;;1.63;0.70;;;;;;;;;;4957914;29;20038;-57
2024/01/02 05:06:01;;;;;;;1.33;1.07;;;;;;;;;;4964760;29;20031;-53
2024/01/02 05:08:26;;;;;;;1.40;0.70;;;;;;;;;;4956703;29;20040;-53
2024/01/02 05:10:52;;;;;;;2.47;1.70;;;;;;;;;;4965778;29;20031;-56
2024/01/02 05:13:18;;;;;;;4.20;1.92;;;;;;;;;;4957645;29;20062;-54
2024/01/02 05:15:43;;;;;;;2.67;1.27;;;;;;;;;;4956489;29;20044;-56
2024/01/02 05:18:08;;;;;;;1.17;0.90;;;;;;;;;;4963520;29;20028;-53
2024/01/02 05:20:33;;;;;;;1.20;0.90;;;;;;;;;;4957576;29;20060;-51
2024/01/02 05:23:03;;;;;;;1.23;0.90;;;;;;;;;;4963631;29;20352;-53
2024/01/02 05:25:28;;;;;;;1.30;0.90;;;;;;;;;;4957350;29;20039;-51
2024/01/02 05:27:54;;;;;;;1.80;1.10;;;;;;;;;;4956542;29;20323;-50
2024/01/02 05:30:19;;;;;;;2.73;1.37;;;;;;;;;;4941791;29;20035;-51
2024/01/02 05:32:45;;;;;;;1.93;1.30;;;;;;;;;;4962327;29;20317;-55
2024/01/02 05:35:10;;;;;;;2.57;1.60;;;;;;;;;;4959225;29;20055;-53
2024/01/02 05:37:35;;;;;;;3.43;1.67;;;;;;;;;;4960059;29;20063;-54
2024/01/02 05:40:00;;;;;;;4.07;2.40;;;;;;;;;;4962581;29;20039;-51
2024/01/02 05:42:26;;;;;;;5.45;2.53;;;;;;;;;;4967363;29;20363;-57
2024/01/02 05:44:52;;;;;;;3.63;2.22;;;;;;;;;;4959812;29;20035;-56
2024/01/02 05:47:17;;;;;;;3.43;2.30;;;;;;;;;;4959714;29;20044;-54
2024/01/02 05:49:43;;;;;;;5.13;2.28;;;;;;;;;;4959581;29;20031;-52
2024/01/02 05:52:08;;;;;;;5.27;3.10;;;;;;;;;;4949314;29;20050;-56
2024/01/02 05:54:34;;;;;;;5.50;3.20;;;;;;;;;;4959693;29;20290;-55
2024/01/02 05:56:59;;;;;;;5.43;2.97;;;;;;;;;;4967774;29;20031;-53
2024/01/02 05:59:25;;;;;;;5.50;3.00;;;;;;;;;;4959278;29;20036;-56
2024/01/02 06:01:50;;;;;;;4.63;2.97;;;;;;;;;;4965945;29;20075;-55
2024/01/02 06:04:16;;;;;;;6.17;3.37;;;;;;;;;;4959510;29;20043;-56
2024/01/02 06:06:41;;;;;;;6.20;3.35;;;;;;;;;;4959314;29;20483;-54
2024/01/02 06:09:07;;;;;;;5.67;3.50;;;;;;;;;;4959493;29;20032;-52
2024/01/02 06:11:32;;;;;;;5.65;3.70;;;;;;;;;;4967494;29;20088;-55
2024/01/02 06:13:58;;;;;;;6.55;3.65;;;;;;;;;;4961748;29;20027;-54
2024/01/02 06:16:23;;;;;;;8.13;4.22;;;;;;;;;;4959180;29;20047;-55
2024/01/02 06:18:49;;;;;;;10.10;4.65;;;;;;;;;;4958939;29;20063;-53
2024/01/02 06:21:14;;;;;;;14.23;5.13;;;;;;;;;;4960647;29;20032;-54
2024/01/02 06:23:40;;;;;;;11.90;5.03;;;;;;;;;;4947146;29;20056;-55
2024/01/02 06:26:05;;;;;;;18.27;5.50;;;;;;;;;;4959716;29;20032;-56
2024/01/02 06:28:31;;;;;;;16.40;5.05;;;;;;;;;;4961507;29;20047;-57
2024/01/02 06:30:56;;;;;;;15.30;6.07;;;;;;;;;;4958664;29;20035;-56
2024/01/02 06:33:22;;;;;;;11.53;5.30;;;;;;;;;;4959752;29;20032;-55
2024/01/02 06:35:47;;;;;;;21.13;7.00;;;;;;;;;;4963596;29;20033;-58
2024/01/02 06:38:13;;;;;;;20.55;5.78;;;;;;;;;;4961446;29;20028;-55
2024/01/02 06:40:39;;;;;;;13.90;5.10;;;;;;;;;;4959212;29;20028;-54
2024/01/02 06:43:04;;;;;;;14.90;5.77;;;;;;;;;;4964899;29;20039;-57
2024/01/02 06:45:30;;;;;;;18.48;6.50;;;;;;;;;;4958490;29;20028;-55
2024/01/02 06:47:56;;;;;;;21.90;6.28;;;;;;;;;;4958336;29;20039;-57
2024/01/02 06:50:21;;;;;;;27.03;6.87;;;;;;;;;;4958657;29;20044;-55
2024/01/02 06:52:47;;;;;;;21.20;6.45;;;;;;;;;;4961461;29;20032;-54
2024/01/02 06:55:13;;;;;;;19.30;5.28;;;;;;;;;;4959408;29;20063;-56
2024/01/02 06:57:39;;;;;;;17.85;5.72;;;;;;;;;;4965262;29;20024;-57
2024/01/02 07:00:05;;;;;;;25.17;7.40;;;;;;;;;;4958060;29;20042;-57
2024/01/02 07:02:32;;;;;;;21.77;5.63;;;;;;;;;;4964661;29;20039;-53
2024/01/02 07:04:57;;;;;;;23.37;5.83;;;;;;;;;;4959589;29;20358;-57
2024/01/02 07:07:23;;;;;;;25.07;6.30;;;;;;;;;;4958694;29;20266;-56
2024/01/02 07:09:48;;;;;;;22.80;5.13;;;;;;;;;;4958228;29;20273;-55
2024/01/02 07:12:14;;;;;;;20.90;4.53;;;;;;;;;;4966836;29;20342;-54
2024/01/02 07:14:40;;;;;;;16.47;5.87;;;;;;;;;;4943759;29;20278;-55
2024/01/02 07:17:05;;;;;;;21.38;4.90;;;;;;;;;;4958091;29;20035;-56
2024/01/02 07:19:31;;;;;;;23.00;5.60;;;;;;;;;;4958123;29;20542;-54
2024/01/02 07:21:56;;;;;;;23.40;5.30;;;;;;;;;;4961173;29;20051;-55
2024/01/02 07:24:22;;;;;;;20.97;4.03;;;;;;;;;;4961446;29;20301;-51
2024/01/02 07:26:48;;;;;;;22.55;4.32;;;;;;;;;;4961137;29;20071;-52
2024/01/02 07:29:13;;;;;;;15.95;4.38;;;;;;;;;;4966754;29;20036;-50
2024/01/02 07:31:38;;;;;;;25.83;5.03;;;;;;;;;;4957268;29;20063;-53
2024/01/02 07:34:05;;;;;;;;;;;;;;;;;;4962337;29;20034;-51
2024/01/02 07:36:30;;;;;;;32.77;4.77;;;;;;;;;;4969709;29;19914;-54
2024/01/02 07:38:56;;;;;;;20.37;4.70;;;;;;;;;;4966057;29;20024;-56
2024/01/02 07:41:21;;;;;;;23.93;3.93;;;;;;;;;;4966949;29;20329;-52
2024/01/02 07:43:47;;;;;;;22.08;4.05;;;;;;;;;;4967039;29;20036;-56
2024/01/02 07:46:12;;;;;;;41.83;5.87;;;;;;;;;;4958052;29;20032;-54
2024/01/02 07:48:38;;;;;;;34.70;5.77;;;;;;;;;;4959157;29;20278;-55
2024/01/02 07:51:04;;;;;;;28.40;4.80;;;;;;;;;;4957398;29;20269;-56
2024/01/02 07:53:29;;;;;;;24.23;5.47;;;;;;;;;;4964842;29;20304;-54
2024/01/02 07:55:54;;;;;;;31.67;4.50;;;;;;;;;;4963187;29;20035;-57
2024/01/02 07:58:20;;;;;;;41.97;6.47;;;;;;;;;;4960738;29;20274;-54
2024/01/02 08:00:45;;;;;;;33.80;6.53;;;;;;;;;;4956858;29;20043;-55
2024/01/02 08:03:11;;;;;;;27.30;4.40;;;;;;;;;;4963687;29;20063;-55
2024/01/02 08:05:36;;;;;;;35.97;6.50;;;;;;;;;;4961982;29;20064;-52
2024/01/02 08:08:02;;;;;;;30.67;6.18;;;;;;;;;;4958937;29;20062;-56
2024/01/02 08:10:28;;;;;;;29.92;5.65;;;;;;;;;;4956949;29;20035;-57
2024/01/02 08:12:54;;;;;;;43.58;5.13;;;;;;;;;;4962599;29;20038;-56
2024/01/02 08:15:19;;;;;;;40.38;6.30;;;;;;;;;;4959952;29;20149;-56
2024/01/02 08:17:45;;;;;;;32.42;4.97;;;;;;;;;;4956764;29;20039;-56
2024/01/02 08:20:11;;;;;;;44.47;5.38;;;;;;;;;;4956887;29;20044;-56
2024/01/02 08:22:36;;;;;;;44.55;7.00;;;;;;;;;;4961813;29;20043;-55
2024/01/02 08:25:03;;;;;;;64.27;7.47;;;;;;;;;;4961955;29;20050;-57
2024/01/02 08:27:29;;;;;;;50.53;6.20;;;;;;;;;;4967478;29;20046;-56
2024/01/02 08:29:55;;;;;;;64.38;8.00;;;;;;;;;;4956619;29;20262;-56
2024/01/02 08:32:21;;;;;;;46.23;7.77;;;;;;;;;;4969046;29;20058;-53
2024/01/02 08:34:47;;;;;;;36.43;5.97;;;;;;;;;;4964395;29;20056;-55
2024/01/02 08:37:12;;;;;;;41.63;7.83;;;;;;;;;;4965299;29;20262;-54
2024/01/02 08:39:38;;;;;;;33.70;7.40;;;;;;;;;;4956808;29;20278;-55
2024/01/02 08:42:04;;;;;;;47.72;7.15;;;;;;;;;;4956693;29;20099;-55
2024/01/02 08:44:30;;;;;;;41.97;6.03;;;;;;;;;;4960377;29;20040;-52
2024/01/02 08:46:55;;;;;;;42.93;6.93;;;;;;;;;;4963442;29;20036;-54
2024/01/02 08:49:21;;;;;;;44.72;7.38;;;;;;;;;;4965093;29;20049;-53
2024/01/02 08:51:46;;;;;;;32.53;5.50;;;;;;;;;;4961770;29;20055;-57
2024/01/02 08:54:11;;;;;;;29.77;6.10;;;;;;;;;;4964608;29;20530;-56
2024/01/02 08:56:36;;;;;;;34.87;6.50;;;;;;;;;;4958938;29;20056;-54
2024/01/02 08:59:02;;;;;;;36.10;6.38;;;;;;;;;;4956102;29;20088;-54
2024/01/02 09:01:28;;;;;;;43.80;7.95;;;;;;;;;;4962125;29;20039;-54
2024/01/02 09:03:53;;;;;;;24.20;5.97;;;;;;;;;;4965474;29;20083;-55
2024/01/02 09:06:19;;;;;;;39.83;6.87;;;;;;;;;;4957762;29;20047;-55
2024/01/02 09:08:45;;;;;;;47.47;8.27;;;;;;;;;;4958949;29;20038;-56
2024/01/02 09:11:11;;;;;;;32.50;5.53;;;;;;;;;;4969366;29;20032;-55
2024/01/02 09:13:36;;;;;;;37.97;6.07;;;;;;;;;;4960290;29;20042;-51
2024/01/02 09:16:02;;;;;;;52.75;6.45;;;;;;;;;;4962672;29;20063;-56
2024/01/02 09:18:27;;;;;;;33.33;5.90;;;;;;;;;;4960179;29;20036;-53
2024/01/02 09:20:54;;;;;;;32.50;6.68;;;;;;;;;;4959867;29;20101;-52
2024/01/02 09:23:19;;;;;;;36.85;7.07;;;;;;;;;;4963103;29;20035;-56
2024/01/02 09:25:46;;;;;;;36.27;6.37;;;;;;;;;;4962634;29;20031;-56
2024/01/02 09:28:12;;;;;;;;;;;;;;;;;;4976360;29;20139;-53
2024/01/02 09:30:37;;;;;;;28.77;6.70;;;;;;;;;;4959578;29;19914;-50
2024/01/02 09:33:03;;;;;;;39.90;6.13;;;;;;;;;;4960927;29;20294;-54
2024/01/02 09:35:28;;;;;;;46.38;7.32;;;;;;;;;;4964317;29;20054;-55
2024/01/02 09:37:54;;;;;;;37.03;6.87;;;;;;;;;;4967220;29;20043;-57
2024/01/02 09:40:20;;;;;;;;;;;;;;;;;;4959939;29;20040;-56
2024/01/02 09:43:04;;;;;;;39.60;6.43;;;;;;;;;;4959648;29;19922;-56
2024/01/02 09:45:39;;;;;;;28.70;7.03;;;;;;;;;;4963825;29;20042;-55
2024/01/02 09:48:13;;;;;;;37.43;5.93;;;;;;;;;;4962454;29;20288;-56
2024/01/02 09:50:38;;;;;;;27.37;6.17;;;;;;;;;;4959443;29;20274;-54
2024/01/02 09:53:28;;;;;;;34.67;6.33;;;;;;;;;;4959414;29;20285;-55
2024/01/02 09:55:58;;;;;;;30.43;6.30;;;;;;;;;;4954624;29;20046;-57
2024/01/02 09:58:23;;;;;;;41.27;6.93;;;;;;;;;;4960984;29;20262;-57
2024/01/02 10:01:07;;;;;;;27.57;5.90;;;;;;;;;;4959387;29;20266;-56
2024/01/02 10:04:00;;;;;;;29.90;6.33;;;;;;;;;;4939792;29;20048;-55
2024/01/02 10:06:32;;;;;;;29.03;5.67;;;;;;;;;;4958751;29;20288;-56
2024/01/02 10:09:21;;;;;;;32.80;7.53;;;;;;;;;;4963130;29;20261;-55
2024/01/02 10:11:58;;;;;;;23.07;7.00;;;;;;;;;;4928494;29;20314;-56
2024/01/02 10:14:28;;;;;;;23.70;8.30;;;;;;;;;;4959830;29;20276;-53
2024/01/02 10:16:56;;;;;;;34.00;8.63;;;;;;;;;;4966680;29;20258;-55
2024/01/02 10:19:33;;;;;;;25.97;8.03;;;;;;;;;;4958845;29;20266;-56
2024/01/02 10:22:01;;;;;;;21.58;7.68;;;;;;;;;;4964351;29;20293;-54
2024/01/02 10:24:37;;;;;;;21.40;7.83;;;;;;;;;;4965354;29;20039;-56
2024/01/02 10:27:03;;;;;;;23.83;8.93;;;;;;;;;;4959515;29;20262;-57
2024/01/02 10:29:28;;;;;;;;;;;;;;;;;;4959326;29;20273;-52
2024/01/02 10:32:07;;;;;;;17.75;7.70;;;;;;;;;;4959253;29;19947;-54
2024/01/02 10:34:39;;;;;;;17.80;6.90;;;;;;;;;;4964826;29;20113;-56
2024/01/02 10:37:05;;;;;;;21.27;7.53;;;;;;;;;;4970768;29;20324;-57
2024/01/02 10:39:30;;;;;;;;;;;;;;;;;;4964706;29;20261;-56
2024/01/02 10:42:04;;;;;;;16.47;7.67;;;;;;;;;;4958519;29;19957;-56
2024/01/02 10:44:35;;;;;;;20.63;8.60;;;;;;;;;;4959009;29;20143;-54
2024/01/02 10:47:05;;;;;;;24.87;9.77;;;;;;;;;;4959277;29;20278;-54
2024/01/02 10:49:40;;;;;;;14.67;8.07;;;;;;;;;;4958142;29;20258;-55
2024/01/02 10:52:12;;;;;;;15.33;8.63;;;;;;;;;;4958220;29;20318;-54
2024/01/02 10:54:47;;;;;;;14.10;8.10;;;;;;;;;;4959239;29;20262;-54
2024/01/02 10:57:20;;;;;;;13.60;6.03;;;;;;;;;;4960691;29;20267;-55
2024/01/02 11:00:10;;;;;;;10.73;6.13;;;;;;;;;;4953603;29;20270;-55
2024/01/02 11:02:48;;;;;;;11.97;6.47;;;;;;;;;;4956144;29;20290;-54
2024/01/02 11:05:13;;;;;;;10.80;6.07;;;;;;;;;;4967150;29;20257;-52
2024/01/02 11:07:40;;;;;;;12.07;6.30;;;;;;;;;;4959675;29;20296;-55
2024/01/02 11:10:09;;;;;;;9.40;5.17;;;;;;;;;;4957956;29;20035;-55
2024/01/02 11:12:53;;;;;;;8.60;4.67;;;;;;;;;;4958048;29;20284;-57
2024/01/02 11:15:19;;;;;;;9.13;5.03;;;;;;;;;;4961499;29;20262;-54
2024/01/02 11:17:46;;;;;;;6.80;4.28;;;;;;;;;;4962272;29;20269;-52
2024/01/02 11:20:14;;;;;;;7.63;4.97;;;;;;;;;;4959149;29;20035;-54
2024/01/02 11:22:49;;;;;;;9.10;5.20;;;;;;;;;;4964551;29;20258;-53
2024/01/02 11:25:16;;;;;;;11.83;5.60;;;;;;;;;;4961195;29;20272;-53
2024/01/02 11:27:42;;;;;;;8.83;4.27;;;;;;;;;;4966956;29;20293;-54
2024/01/02 11:30:10;;;;;;;7.53;4.80;;;;;;;;;;4960183;29;20273;-50
2024/01/02 11:32:55;;;;;;;8.03;4.80;;;;;;;;;;4957284;29;20285;-52
2024/01/02 11:35:20;;;;;;;5.87;3.60;;;;;;;;;;4957278;29;20266;-53
2024/01/02 11:37:54;;;;;;;3.58;2.20;;;;;;;;;;4958339;29;20262;-54
2024/01/02 11:40:21;;;;;;;2.90;1.90;;;;;;;;;;4957366;29;20090;-55
2024/01/02 11:42:57;;;;;;;2.33;1.30;;;;;;;;;;4965364;29;20293;-54
2024/01/02 11:45:24;;;;;;;5.23;2.07;;;;;;;;;;4958462;29;20266;-50
2024/01/02 11:47:52;;;;;;;2.17;1.20;;;;;;;;;;4962363;29;20294;-52
2024/01/02 11:50:17;;;;;;;5.67;1.00;;;;;;;;;;4958720;29;20262;-53
2024/01/02 11:52:43;;;;;;;1.37;0.80;;;;;;;;;;4957298;29;20293;-54
2024/01/02 11:55:31;;;;;;;2.10;0.80;;;;;;;;;;4957071;29;20104;-50
2024/01/02 11:58:00;;;;;;;1.13;0.70;;;;;;;;;;4922371;29;20050;-53
2024/01/02 12:00:40;;;;;;;1.73;1.07;;;;;;;;;;4956854;29;20270;-54
2024/01/02 12:03:15;;;;;;;2.97;1.30;;;;;;;;;;4957026;29;20253;-55
2024/01/02 12:05:42;;;;;;;1.83;1.00;;;;;;;;;;4959992;29;20300;-53
2024/01/02 12:08:15;;;;;;;1.63;1.07;;;;;;;;;;4966259;29;20281;-55
2024/01/02 12:10:47;;;;;;;2.40;1.30;;;;;;;;;;4959704;29;20270;-56
2024/01/02 12:13:28;;;;;;;1.57;1.17;;;;;;;;;;4962797;29;20363;-55
2024/01/02 12:15:54;;;;;;;4.77;1.63;;;;;;;;;;4962624;29;20272;-56
2024/01/02 12:18:23;;;;;;;5.40;1.43;;;;;;;;;;4962844;29;20266;-56
2024/01/02 12:20:54;;;;;;;3.33;1.63;;;;;;;;;;4944315;29;20262;-54
2024/01/02 12:23:20;;;;;;;4.30;2.27;;;;;;;;;;4956376;29;20270;-50
2024/01/02 12:25:48;;;;;;;6.10;2.00;;;;;;;;;;4961767;29;20280;-55
2024/01/02 12:28:14;;;;;;;3.37;1.67;;;;;;;;;;4944963;29;20266;-55
2024/01/02 12:30:48;;;;;;;4.03;1.63;;;;;;;;;;4956459;29;20257;-53
2024/01/02 12:33:29;;;;;;;5.30;1.50;;;;;;;;;;4956120;29;20040;-56
2024/01/02 12:35:54;;;;;;;3.13;1.33;;;;;;;;;;4961313;29;20268;-57
2024/01/02 12:38:23;;;;;;;2.37;1.40;;;;;;;;;;4967673;28;20262;-55
2024/01/02 12:40:51;;;;;;;2.30;1.47;;;;;;;;;;4955070;29;20285;-55
2024/01/02 12:43:25;;;;;;;1.90;1.07;;;;;;;;;;4955921;29;20285;-55
2024/01/02 12:46:02;;;;;;;1.57;1.20;;;;;;;;;;4962654;29;20284;-58
2024/01/02 12:48:29;;;;;;;2.17;1.08;;;;;;;;;;4957266;29;20274;-55
2024/01/02 12:50:56;;;;;;;3.97;1.30;;;;;;;;;;4961456;29;20058;-58
2024/01/02 12:53:25;;;;;;;4.67;1.60;;;;;;;;;;4964767;29;20313;-57
2024/01/02 12:55:57;;;;;;;9.00;1.50;;;;;;;;;;4960493;29;20292;-57
2024/01/02 12:58:25;;;;;;;5.53;1.53;;;;;;;;;;4962103;29;20276;-58
2024/01/02 13:00:50;;;;;;;2.13;1.17;;;;;;;;;;4961970;29;20258;-55
2024/01/02 13:03:16;;;;;;;7.03;1.30;;;;;;;;;;4959888;29;20278;-58
2024/01/02 13:05:43;;;;;;;1.58;1.00;;;;;;;;;;4960107;29;20042;-55
2024/01/02 13:08:15;;;;;;;0.70;0.70;;;;;;;;;;4962202;29;20032;-51
2024/01/02 13:10:42;;;;;;;1.50;0.90;;;;;;;;;;4964994;29;20059;-58
2024/01/02 13:13:08;;;;;;;4.20;1.10;;;;;;;;;;4964019;29;20313;-53
2024/01/02 13:15:33;;;;;;;2.63;1.40;;;;;;;;;;4960109;29;20092;-55
2024/01/02 13:18:00;;;;;;;4.07;1.70;;;;;;;;;;4950980;29;20019;-56
2024/01/02 13:20:26;;;;;;;5.13;2.43;;;;;;;;;;4967395;29;20039;-57
2024/01/02 13:22:52;;;;;;;6.68;3.17;;;;;;;;;;4966979;29;20270;-56
2024/01/02 13:25:20;;;;;;;7.00;2.60;;;;;;;;;;4961733;29;20039;-55
2024/01/02 13:27:45;;;;;;;9.93;2.97;;;;;;;;;;4963522;29;20274;-55
2024/01/02 13:30:11;;;;;;;11.60;3.77;;;;;;;;;;4966330;29;20282;-54
2024/01/02 13:32:36;;;;;;;4.22;2.65;;;;;;;;;;4959741;29;20047;-59
2024/01/02 13:35:17;;;;;;;5.10;3.17;;;;;;;;;;4959670;29;20047;-56
2024/01/02 13:37:42;;;;;;;7.07;3.27;;;;;;;;;;4952150;29;20024;-56
2024/01/02 13:40:18;;;;;;;6.90;4.60;;;;;;;;;;4962746;29;20272;-55
2024/01/02 13:42:45;;;;;;;5.27;3.23;;;;;;;;;;4960988;29;20312;-54
2024/01/02 13:45:32;;;;;;;15.20;4.47;;;;;;;;;;4959450;29;20277;-55
2024/01/02 13:48:06;;;;;;;5.65;3.40;;;;;;;;;;4961284;29;20347;-56
2024/01/02 13:50:32;;;;;;;6.70;3.90;;;;;;;;;;4962099;29;20241;-55
2024/01/02 13:53:02;;;;;;;7.33;3.70;;;;;;;;;;4959022;29;20330;-56
2024/01/02 13:55:28;;;;;;;4.57;3.23;;;;;;;;;;4959042;29;20079;-57
2024/01/02 13:57:54;;;;;;;8.50;3.17;;;;;;;;;;4966936;29;20246;-56
2024/01/02 14:00:19;;;;;;;4.50;2.63;;;;;;;;;;4966945;29;20103;-54
2024/01/02 14:02:45;;;;;;;3.50;2.50;;;;;;;;;;4952252;29;20278;-56
2024/01/02 14:05:11;;;;;;;6.90;2.83;;;;;;;;;;4942301;29;20038;-56
2024/01/02 14:07:43;;;;;;;3.38;2.22;;;;;;;;;;4963215;29;20367;-57
2024/01/02 14:10:09;;;;;;;2.67;2.07;;;;;;;;;;4962226;29;20039;-55
2024/01/02 14:12:36;;;;;;;3.67;2.47;;;;;;;;;;4956489;29;20289;-56
2024/01/02 14:15:07;;;;;;;7.87;2.40;;;;;;;;;;4960511;29;20035;-57
2024/01/02 14:17:34;;;;;;;4.07;2.63;;;;;;;;;;4943534;29;20280;-52
2024/01/02 14:20:11;;;;;;;3.77;2.37;;;;;;;;;;4960490;29;20277;-56
2024/01/02 14:22:37;;;;;;;;;;;;;;;;;;4955102;29;20277;-53
2024/01/02 14:25:08;;;;;;;4.90;2.30;;;;;;;;;;4961598;29;19915;-56
2024/01/02 14:27:57;;;;;;;5.20;2.20;;;;;;;;;;4958789;29;20044;-55
2024/01/02 14:30:25;;;;;;;3.73;2.20;;;;;;;;;;4931808;29;20274;-55
2024/01/02 14:32:51;;;;;;;2.50;2.00;;;;;;;;;;4964716;29;20285;-53
2024/01/02 14:35:22;;;;;;;4.10;2.25;;;;;;;;;;4960148;29;20337;-57
2024/01/02 14:37:47;;;;;;;3.23;2.20;;;;;;;;;;4964535;29;20019;-54
2024/01/02 14:40:17;;;;;;;3.77;2.20;;;;;;;;;;4962050;29;20261;-58